Time;durP1;ratioP1;P1;durP2;ratioP2;P2;SDS_P1;SDS_P2;PMS_P1;PMS_P2;Temp;Humidity;BMP_temperature;BMP_pressure;BME280_temperature;BME280_humidity;BME280_pressure;Samples;Min_cycle;Max_cycle;Signal;HPM_P1;HPM_P2
2022/06/20 00:00:39;;;;;;;3.53;1.40;;;21.40;99.90;;;;;;4954343;28;20461;-88
2022/06/20 00:03:09;;;;;;;4.57;2.20;;;21.30;99.90;;;;;;4960756;28;20452;-89
2022/06/20 00:05:37;;;;;;;3.33;2.03;;;21.30;99.90;;;;;;4957722;28;20457;-90
2022/06/20 00:08:06;;;;;;;4.93;1.73;;;21.30;99.90;;;;;;4959217;28;20503;-89
2022/06/20 00:10:33;;;;;;;1.90;1.80;;;21.30;99.90;;;;;;4956627;28;20787;-89
2022/06/20 00:13:02;;;;;;;2.50;1.73;;;21.30;99.90;;;;;;4956525;28;20488;-90
2022/06/20 00:15:31;;;;;;;4.30;2.27;;;21.30;99.90;;;;;;4959109;28;20468;-89
2022/06/20 00:18:00;;;;;;;1.70;1.60;;;21.30;99.90;;;;;;4961086;28;20453;-90
2022/06/20 00:20:28;;;;;;;2.17;1.97;;;21.20;99.90;;;;;;4959622;28;20543;-90
2022/06/20 00:22:56;;;;;;;4.27;2.10;;;21.20;99.90;;;;;;4959059;28;20461;-89
2022/06/20 00:25:25;;;;;;;2.90;1.80;;;21.20;99.90;;;;;;4959246;28;20513;-89
2022/06/20 00:27:54;;;;;;;4.87;1.80;;;21.20;99.90;;;;;;4953969;28;20906;-89
2022/06/20 00:30:21;;;;;;;2.10;1.90;;;21.20;99.90;;;;;;4953596;28;20535;-90
2022/06/20 00:32:49;;;;;;;2.80;2.43;;;21.20;99.90;;;;;;4956628;28;20499;-89
2022/06/20 00:35:16;;;;;;;5.43;1.90;;;21.10;99.90;;;;;;4966321;28;20877;-89
2022/06/20 00:37:44;;;;;;;3.93;1.97;;;21.10;99.90;;;;;;4971473;28;20476;-89
2022/06/20 00:40:23;;;;;;;2.20;1.80;;;21.10;99.90;;;;;;4978148;28;20460;-89
2022/06/20 00:42:52;;;;;;;2.80;1.63;;;21.00;99.90;;;;;;4971611;28;20498;-89
2022/06/20 00:45:21;;;;;;;4.83;1.53;;;21.00;99.90;;;;;;4958489;28;20452;-90
2022/06/20 00:47:51;;;;;;;1.67;1.57;;;21.00;99.90;;;;;;4958991;28;20876;-88
2022/06/20 00:50:22;;;;;;;2.70;1.40;;;21.00;99.90;;;;;;4954880;28;20774;-91
2022/06/20 00:52:54;;;;;;;5.30;2.43;;;20.90;99.90;;;;;;4959863;28;20492;-91
2022/06/20 00:55:26;;;;;;;4.10;1.97;;;21.00;99.90;;;;;;4958726;28;20456;-91
2022/06/20 00:57:58;;;;;;;2.23;1.73;;;20.90;99.90;;;;;;4961296;28;21164;-89
2022/06/20 01:00:28;;;;;;;2.57;1.57;;;20.90;99.90;;;;;;4959155;28;20890;-91
2022/06/20 01:03:02;;;;;;;2.97;2.17;;;20.90;99.90;;;;;;4957884;28;20460;-89
2022/06/20 01:05:36;;;;;;;6.83;2.43;;;20.90;99.90;;;;;;4959295;28;20473;-90
2022/06/20 01:08:06;;;;;;;4.50;2.10;;;20.90;99.90;;;;;;4960671;28;20452;-90
2022/06/20 01:10:42;;;;;;;4.83;1.80;;;20.90;99.90;;;;;;4954652;28;20678;-90
2022/06/20 01:13:15;;;;;;;4.93;3.43;;;20.90;99.90;;;;;;4958232;28;21316;-89
2022/06/20 01:15:44;;;;;;;1.90;1.80;;;20.80;99.90;;;;;;4960590;28;20453;-90
2022/06/20 01:18:18;;;;;;;2.00;1.67;;;20.70;99.90;;;;;;4957495;28;20538;-90
2022/06/20 01:20:46;;;;;;;1.97;1.73;;;20.70;99.90;;;;;;4958503;28;21019;-91
2022/06/20 01:23:26;;;;;;;3.00;2.43;;;20.70;99.90;;;;;;4957352;28;20474;-90
2022/06/20 01:26:03;;;;;;;4.00;2.57;;;20.70;99.90;;;;;;4957126;28;20479;-92
2022/06/20 01:28:35;;;;;;;2.00;1.90;;;20.70;99.90;;;;;;4961457;28;20467;-91
2022/06/20 01:31:02;;;;;;;2.40;1.60;;;20.70;99.90;;;;;;4962429;28;20453;-90
2022/06/20 01:33:29;;;;;;;1.97;1.67;;;20.70;99.90;;;;;;4962117;28;20492;-90
2022/06/20 01:38:44;;;;;;;3.50;1.83;;;20.60;99.90;;;;;;4969881;28;20448;-90
2022/06/20 01:44:00;;;;;;;3.93;1.90;;;20.50;99.90;;;;;;4959166;28;20932;-89
2022/06/20 01:46:30;;;;;;;2.60;2.23;;;20.50;99.90;;;;;;4960260;28;20874;-89
2022/06/20 01:49:01;;;;;;;2.73;1.90;;;20.50;99.90;;;;;;4958752;28;20472;-92
2022/06/20 01:51:43;;;;;;;4.20;2.53;;;20.50;99.90;;;;;;4961819;28;20492;-89
2022/06/20 01:54:13;;;;;;;1.97;1.67;;;20.50;99.90;;;;;;4959408;28;20570;-89
2022/06/20 01:56:42;;;;;;;2.00;1.70;;;20.40;99.90;;;;;;4962470;28;20456;-90
2022/06/20 01:59:14;;;;;;;3.73;2.17;;;20.40;99.90;;;;;;4959782;28;20536;-90
2022/06/20 02:01:42;;;;;;;2.60;1.73;;;20.40;99.90;;;;;;4959246;28;20441;-89
2022/06/20 02:04:15;;;;;;;2.57;1.60;;;20.50;99.90;;;;;;4963609;28;20468;-91
2022/06/20 02:06:44;;;;;;;2.23;2.13;;;20.40;99.90;;;;;;4960603;28;21137;-90
2022/06/20 02:09:12;;;;;;;5.83;1.83;;;20.40;99.90;;;;;;4959503;28;20452;-89
2022/06/20 02:11:41;;;;;;;3.17;2.77;;;20.30;99.90;;;;;;4959755;28;20551;-89
2022/06/20 02:14:13;;;;;;;1.57;1.47;;;20.30;99.90;;;;;;4960664;28;20541;-90
2022/06/20 02:16:43;;;;;;;3.80;1.90;;;20.10;99.90;;;;;;4959886;28;20464;-89
2022/06/20 02:19:15;;;;;;;4.10;1.80;;;20.20;99.90;;;;;;4962294;28;21002;-90
2022/06/20 02:21:45;;;;;;;3.07;2.20;;;20.10;99.90;;;;;;4958210;28;20518;-88
2022/06/20 02:24:15;;;;;;;2.07;1.87;;;20.20;99.90;;;;;;4954975;28;20518;-89
2022/06/20 02:26:44;;;;;;;3.07;1.90;;;20.00;99.90;;;;;;4963709;28;20469;-89
2022/06/20 02:29:23;;;;;;;2.87;2.40;;;20.00;99.90;;;;;;4958306;28;20472;-89
2022/06/20 02:31:55;;;;;;;6.73;2.27;;;19.90;99.90;;;;;;4960847;28;20455;-89
2022/06/20 02:34:23;;;;;;;3.40;1.63;;;19.90;99.90;;;;;;4954945;28;20562;-90
2022/06/20 02:36:51;;;;;;;4.70;3.00;;;20.00;99.90;;;;;;4961720;28;20980;-90
2022/06/20 02:39:18;;;;;;;4.17;1.87;;;20.00;99.90;;;;;;4958997;28;20479;-89
2022/06/20 02:41:49;;;;;;;2.50;2.30;;;19.90;99.90;;;;;;4956644;28;20445;-89
2022/06/20 02:44:20;;;;;;;3.43;1.70;;;19.90;99.90;;;;;;4960358;28;20986;-91
2022/06/20 02:46:50;;;;;;;5.13;1.90;;;19.80;99.90;;;;;;4958061;28;20472;-91
2022/06/20 02:49:19;;;;;;;2.80;2.37;;;19.80;99.90;;;;;;4955615;28;20453;-91
2022/06/20 02:51:50;;;;;;;4.20;3.07;;;19.80;99.90;;;;;;4961709;28;20453;-91
2022/06/20 02:54:21;;;;;;;7.00;2.27;;;19.90;99.90;;;;;;4967084;28;20538;-92
2022/06/20 02:56:52;;;;;;;5.00;2.13;;;19.90;99.90;;;;;;4973625;28;21698;-89
2022/06/20 02:59:24;;;;;;;1.40;1.30;;;20.00;99.90;;;;;;4984070;28;20500;-90
2022/06/20 03:01:55;;;;;;;2.37;1.53;;;20.10;99.90;;;;;;4971760;28;20455;-91
2022/06/20 03:04:23;;;;;;;6.43;2.53;;;20.10;99.90;;;;;;4965040;28;20471;-92
2022/06/20 03:06:54;;;;;;;9.13;2.67;;;20.00;99.90;;;;;;4961285;28;20487;-89
2022/06/20 03:09:27;;;;;;;4.07;1.60;;;20.10;99.90;;;;;;4960208;28;20480;-90
2022/06/20 03:11:55;;;;;;;2.50;2.33;;;20.10;99.90;;;;;;4958385;28;20961;-91
2022/06/20 03:14:31;;;;;;;3.83;2.63;;;20.10;99.90;;;;;;4962414;28;20554;-90
2022/06/20 03:16:59;;;;;;;4.43;2.30;;;20.10;99.90;;;;;;4956806;28;20440;-92
2022/06/20 03:19:32;;;;;;;6.20;2.37;;;20.20;99.90;;;;;;4956292;28;20474;-88
2022/06/20 03:22:02;;;;;;;5.60;2.60;;;20.20;99.90;;;;;;4958091;28;20465;-88
2022/06/20 03:24:31;;;;;;;6.80;3.50;;;20.10;99.90;;;;;;4959324;28;20491;-89
2022/06/20 03:27:01;;;;;;;5.43;2.97;;;20.10;99.90;;;;;;4959854;28;20445;-87
2022/06/20 03:29:30;;;;;;;5.97;2.90;;;20.10;99.90;;;;;;4957010;28;20468;-87
2022/06/20 03:31:57;;;;;;;1.90;1.80;;;20.00;99.90;;;;;;4956829;28;20460;-88
2022/06/20 03:34:24;;;;;;;3.40;2.20;;;20.00;99.90;;;;;;4957881;28;20584;-87
2022/06/20 03:36:52;;;;;;;2.80;2.47;;;20.10;99.90;;;;;;4957521;28;20551;-89
2022/06/20 03:39:20;;;;;;;1.93;1.30;;;20.20;99.90;;;;;;4958315;28;20461;-88
2022/06/20 03:41:49;;;;;;;8.47;2.70;;;20.10;99.90;;;;;;4958902;28;20465;-86
2022/06/20 03:44:20;;;;;;;2.63;1.90;;;20.20;99.90;;;;;;4957337;28;20467;-87
2022/06/20 03:46:55;;;;;;;1.80;1.70;;;20.00;99.90;;;;;;4959353;28;20958;-86
2022/06/20 03:49:28;;;;;;;4.30;2.20;;;20.00;99.90;;;;;;4959827;28;20463;-87
2022/06/20 03:52:01;;;;;;;4.27;2.60;;;20.20;99.90;;;;;;4959246;28;20549;-89
2022/06/20 03:54:35;;;;;;;3.27;2.40;;;20.40;99.90;;;;;;4955603;28;20510;-87
2022/06/20 03:57:06;;;;;;;4.70;2.97;;;20.50;99.90;;;;;;4955547;28;20481;-87
2022/06/20 03:59:40;;;;;;;9.63;3.87;;;20.60;99.90;;;;;;4958254;28;20456;-87
2022/06/20 04:02:13;;;;;;;2.53;2.33;;;20.80;99.90;;;;;;4956542;28;21012;-89
2022/06/20 04:04:48;;;;;;;3.40;3.10;;;21.00;99.90;;;;;;4959654;28;20471;-87
2022/06/20 04:07:19;;;;;;;3.27;2.97;;;21.10;99.90;;;;;;4954449;28;20465;-87
2022/06/20 04:12:41;;;;;;;6.97;3.17;;;21.30;99.90;;;;;;4955430;28;20545;-87
2022/06/20 04:15:14;;;;;;;3.23;2.93;;;21.20;99.90;;;;;;4960293;28;20902;-86
2022/06/20 04:20:38;;;;;;;6.57;3.07;;;21.10;99.90;;;;;;4956579;28;20635;-90
2022/06/20 04:23:12;;;;;;;3.50;3.30;;;21.10;99.90;;;;;;4956791;28;20505;-88
2022/06/20 04:25:46;;;;;;;6.80;3.10;;;21.40;99.90;;;;;;4955357;28;20475;-88
2022/06/20 04:28:19;;;;;;;3.40;3.17;;;21.70;99.90;;;;;;4955441;28;20550;-89
2022/06/20 04:30:50;;;;;;;3.87;3.37;;;21.90;99.90;;;;;;4955047;28;21143;-89
2022/06/20 04:33:24;;;;;;;4.70;4.30;;;22.30;99.90;;;;;;4956695;28;20485;-90
2022/06/20 04:36:05;;;;;;;5.77;4.50;;;22.60;99.90;;;;;;4960993;28;20468;-89
2022/06/20 04:38:38;;;;;;;3.70;3.40;;;22.80;99.90;;;;;;4959494;28;20468;-86
2022/06/20 04:41:11;;;;;;;4.10;2.90;;;22.90;99.90;;;;;;4957904;28;20445;-85
2022/06/20 04:43:43;;;;;;;4.50;3.53;;;22.80;99.90;;;;;;4957731;28;20560;-88
2022/06/20 04:46:19;;;;;;;5.60;3.23;;;22.90;99.90;;;;;;4958415;28;20836;-86
2022/06/20 04:48:49;;;;;;;3.20;2.90;;;22.70;99.90;;;;;;4957523;28;20500;-86
2022/06/20 04:51:20;;;;;;;4.10;3.80;;;22.70;99.90;;;;;;4955756;28;20456;-86
2022/06/20 04:53:50;;;;;;;5.13;4.80;;;22.70;99.90;;;;;;4960021;28;20475;-87
2022/06/20 04:56:26;;;;;;;3.50;3.27;;;22.70;99.90;;;;;;4956372;28;20464;-86
2022/06/20 04:58:57;;;;;;;4.83;4.10;;;22.90;99.90;;;;;;4961150;28;20482;-86
2022/06/20 05:01:24;;;;;;;4.00;3.80;;;23.20;99.90;;;;;;4960535;28;21106;-87
2022/06/20 05:03:57;;;;;;;4.47;4.17;;;23.20;99.90;;;;;;4964898;28;20809;-87
2022/06/20 05:06:27;;;;;;;4.50;3.50;;;23.30;99.90;;;;;;4960455;28;20547;-87
2022/06/20 05:08:59;;;;;;;4.17;3.07;;;23.50;99.90;;;;;;4956324;28;20484;-88
2022/06/20 05:11:31;;;;;;;4.60;3.87;;;23.30;99.90;;;;;;4962021;28;20479;-87
2022/06/20 05:14:05;;;;;;;4.07;3.33;;;23.10;99.90;;;;;;4958413;28;20499;-86
2022/06/20 05:16:39;;;;;;;4.47;3.80;;;22.90;99.90;;;;;;4955582;28;20482;-86
2022/06/20 05:19:14;;;;;;;3.03;2.83;;;23.10;99.90;;;;;;4958663;28;20457;-89
2022/06/20 05:21:45;;;;;;;4.77;3.80;;;22.80;99.90;;;;;;4957833;28;20456;-87
2022/06/20 05:24:14;;;;;;;4.50;4.10;;;22.70;99.90;;;;;;4958986;28;20504;-86
2022/06/20 05:26:44;;;;;;;4.10;3.50;;;22.50;99.90;;;;;;4961601;28;20476;-87
2022/06/20 05:29:19;;;;;;;2.43;2.23;;;22.40;99.90;;;;;;4962035;28;20592;-88
2022/06/20 05:31:52;;;;;;;3.27;3.07;;;22.10;99.90;;;;;;4953643;28;20548;-88
2022/06/20 05:34:23;;;;;;;5.50;3.77;;;21.90;99.90;;;;;;4959325;28;20490;-86
2022/06/20 05:36:56;;;;;;;12.97;3.90;;;21.90;99.90;;;;;;4960146;28;20472;-87
2022/06/20 05:39:28;;;;;;;12.83;3.30;;;21.90;99.90;;;;;;4957249;28;20526;-87
2022/06/20 05:41:55;;;;;;;4.40;3.33;;;21.80;99.90;;;;;;4962852;28;20534;-86
2022/06/20 05:44:22;;;;;;;3.20;2.90;;;21.80;99.90;;;;;;4949973;28;20554;-86
2022/06/20 05:46:55;;;;;;;5.00;3.10;;;21.60;99.90;;;;;;4962404;28;20457;-86
2022/06/20 05:49:29;;;;;;;4.60;4.00;;;21.50;99.90;;;;;;4977185;28;20507;-85
2022/06/20 05:51:58;;;;;;;4.33;3.90;;;21.60;99.90;;;;;;4980222;28;20469;-86
2022/06/20 05:54:29;;;;;;;3.63;2.60;;;21.50;99.90;;;;;;4965659;28;20479;-86
2022/06/20 05:57:00;;;;;;;3.10;2.47;;;21.60;99.90;;;;;;4962585;28;21394;-86
2022/06/20 05:59:39;;;;;;;5.07;2.50;;;21.50;99.90;;;;;;4963386;28;21101;-87
2022/06/20 06:02:22;;;;;;;4.80;3.83;;;21.40;99.90;;;;;;4959934;28;20817;-85
2022/06/20 06:04:58;;;;;;;5.20;4.03;;;21.50;99.90;;;;;;4957340;28;20518;-86
2022/06/20 06:07:30;;;;;;;4.60;3.77;;;21.50;99.90;;;;;;4959224;28;20468;-85
2022/06/20 06:09:59;;;;;;;6.20;4.60;;;21.60;99.90;;;;;;4951979;28;20613;-86
2022/06/20 06:12:32;;;;;;;7.53;4.40;;;21.60;99.90;;;;;;4957536;28;20532;-87
2022/06/20 06:15:05;;;;;;;4.20;3.80;;;21.40;99.90;;;;;;4959808;28;20480;-86
2022/06/20 06:17:38;;;;;;;4.53;4.00;;;21.40;99.90;;;;;;4955925;28;20473;-86
2022/06/20 06:20:13;;;;;;;4.93;4.43;;;21.40;99.90;;;;;;4955246;28;20479;-86
2022/06/20 06:22:43;;;;;;;3.63;3.33;;;21.00;99.90;;;;;;4955727;28;20463;-86
2022/06/20 06:25:22;;;;;;;4.60;3.87;;;21.10;99.90;;;;;;4958836;28;22076;-87
2022/06/20 06:27:52;;;;;;;3.33;3.07;;;21.40;99.90;;;;;;4959400;28;20471;-86
2022/06/20 06:30:22;;;;;;;6.63;4.03;;;21.70;99.90;;;;;;4952109;28;20531;-87
2022/06/20 06:32:53;;;;;;;4.07;3.77;;;22.00;99.90;;;;;;4957254;28;20460;-86
2022/06/20 06:35:28;;;;;;;4.10;3.80;;;22.10;99.90;;;;;;4957982;28;20484;-86
2022/06/20 06:38:00;;;;;;;9.23;6.30;;;22.10;99.90;;;;;;4958095;28;20506;-87
2022/06/20 06:40:34;;;;;;;4.57;3.60;;;22.30;99.90;;;;;;4958564;28;20465;-87
2022/06/20 06:43:05;;;;;;;14.30;9.00;;;22.80;99.90;;;;;;4958386;28;20480;-88
2022/06/20 06:45:35;;;;;;;10.50;5.90;;;23.00;99.90;;;;;;4956802;28;20466;-88
2022/06/20 06:48:10;;;;;;;9.70;7.23;;;22.90;99.90;;;;;;4957725;28;20549;-87
2022/06/20 06:50:43;;;;;;;4.57;4.00;;;22.90;99.90;;;;;;4962344;28;20487;-86
2022/06/20 06:53:17;;;;;;;3.50;3.20;;;23.60;99.90;;;;;;4952884;28;20525;-88
2022/06/20 06:55:49;;;;;;;5.63;3.90;;;24.60;99.90;;;;;;4955809;28;20484;-88
2022/06/20 06:58:21;;;;;;;4.43;3.97;;;25.00;99.90;;;;;;4959595;28;20565;-89
2022/06/20 07:00:54;;;;;;;4.53;4.13;;;25.60;99.90;;;;;;4957244;28;20523;-88
2022/06/20 07:03:25;;;;;;;3.93;3.27;;;25.80;97.70;;;;;;4956283;28;20463;-88
2022/06/20 07:05:58;;;;;;;5.00;4.60;;;26.10;96.40;;;;;;4951375;28;20472;-89
2022/06/20 07:08:29;;;;;;;5.43;4.77;;;25.90;95.70;;;;;;4959919;28;20445;-88
2022/06/20 07:11:02;;;;;;;4.37;3.97;;;25.50;96.90;;;;;;4960007;28;21009;-90
2022/06/20 07:13:38;;;;;;;5.17;4.23;;;25.40;97.80;;;;;;4957674;28;20471;-87
2022/06/20 07:16:16;;;;;;;13.60;4.00;;;25.30;98.40;;;;;;4953928;28;20484;-88
2022/06/20 07:18:46;;;;;;;4.90;4.50;;;25.40;99.20;;;;;;4957865;28;20480;-88
2022/06/20 07:21:18;;;;;;;3.70;3.40;;;25.40;98.50;;;;;;4952446;28;20475;-88
2022/06/20 07:23:48;;;;;;;3.93;3.40;;;25.10;99.60;;;;;;4953213;28;20459;-88
2022/06/20 07:26:18;;;;;;;6.27;4.67;;;25.20;99.60;;;;;;4956099;28;20479;-88
2022/06/20 07:28:49;;;;;;;3.10;2.90;;;25.10;99.40;;;;;;4953930;28;20517;-88
2022/06/20 07:31:21;;;;;;;6.90;3.77;;;25.10;99.90;;;;;;4953957;28;20550;-90
2022/06/20 07:33:52;;;;;;;4.90;4.50;;;25.20;99.90;;;;;;4958888;28;20469;-91
2022/06/20 07:36:25;;;;;;;4.37;3.90;;;25.10;99.90;;;;;;4954238;28;20487;-90
2022/06/20 07:38:57;;;;;;;4.30;4.00;;;24.90;99.90;;;;;;4959462;28;20654;-89
2022/06/20 07:41:32;;;;;;;4.73;4.40;;;24.80;99.90;;;;;;4955871;28;20526;-90
2022/06/20 07:44:05;;;;;;;5.13;4.53;;;24.50;99.90;;;;;;4959394;28;20547;-90
2022/06/20 07:46:38;;;;;;;5.13;4.63;;;24.30;99.90;;;;;;4957347;28;20461;-90
2022/06/20 07:49:12;;;;;;;5.13;3.80;;;24.20;99.90;;;;;;4956596;28;21006;-90
2022/06/20 07:51:44;;;;;;;10.07;5.70;;;23.90;99.90;;;;;;4959739;28;20522;-91
2022/06/20 07:54:16;;;;;;;3.90;3.60;;;23.70;99.90;;;;;;4961733;28;20467;-90
2022/06/20 07:56:47;;;;;;;7.33;3.90;;;23.50;99.90;;;;;;4950339;28;20497;-91
2022/06/20 07:59:19;;;;;;;3.70;3.03;;;23.30;99.90;;;;;;4953351;28;20493;-90
2022/06/20 08:02:28;;;;;;;3.73;3.40;;;23.20;99.90;;;;;;4959736;28;20529;-91
2022/06/20 08:04:58;;;;;;;6.10;3.33;;;23.30;99.90;;;;;;4963637;28;21149;-88
2022/06/20 08:07:31;;;;;;;3.23;2.93;;;23.10;99.90;;;;;;4952978;28;21212;-88
2022/06/20 08:10:02;;;;;;;7.93;4.53;;;22.80;99.90;;;;;;4958458;28;20456;-88
2022/06/20 08:12:36;;;;;;;6.93;4.00;;;22.80;99.90;;;;;;4957969;28;20473;-88
2022/06/20 08:15:08;;;;;;;7.80;3.90;;;22.60;99.90;;;;;;4961158;28;20567;-89
2022/06/20 08:17:35;;;;;;;7.40;3.53;;;22.50;99.90;;;;;;4958500;28;20476;-88
2022/06/20 08:20:02;;;;;;;3.17;2.90;;;22.50;99.90;;;;;;4954793;28;20465;-89
2022/06/20 08:22:36;;;;;;;4.53;2.57;;;22.50;99.90;;;;;;4955381;28;20550;-89
2022/06/20 08:25:10;;;;;;;2.20;2.00;;;22.40;99.90;;;;;;4962310;28;20542;-89
2022/06/20 08:27:43;;;;;;;2.90;2.40;;;22.20;99.90;;;;;;4959047;28;20459;-88
2022/06/20 08:30:14;;;;;;;2.40;2.20;;;22.10;99.90;;;;;;4959498;28;20556;-89
2022/06/20 08:32:56;;;;;;;3.33;2.70;;;21.80;99.90;;;;;;4955236;28;20469;-88
2022/06/20 08:35:31;;;;;;;3.00;2.17;;;21.70;99.90;;;;;;4957190;28;20484;-89
2022/06/20 08:38:08;;;;;;;13.63;2.50;;;21.70;99.90;;;;;;4974733;28;21162;-89
2022/06/20 08:41:12;;;;;;;1.97;1.87;;;21.50;99.90;;;;;;4964621;28;20529;-91
2022/06/20 08:43:59;;;;;;;1.80;1.70;;;21.00;99.90;;;;;;4975994;28;20454;-91
2022/06/20 08:46:57;;;;;;;4.43;2.70;;;20.70;99.90;;;;;;4983817;28;20508;-91
2022/06/20 08:50:14;;;;;;;2.07;1.97;;;20.60;99.90;;;;;;5018703;28;20460;-90
2022/06/20 08:56:27;;;;;;;4.53;2.90;;;20.30;99.90;;;;;;5138000;27;20529;-88
2022/06/20 08:59:05;;;;;;;1.43;1.33;;;20.20;99.90;;;;;;5125436;27;20464;-89
2022/06/20 09:01:44;;;;;;;2.57;1.87;;;20.20;99.90;;;;;;5122707;27;20473;-89
2022/06/20 09:04:35;;;;;;;3.23;1.20;;;20.20;99.90;;;;;;5118347;27;20451;-89
2022/06/20 09:07:17;;;;;;;3.30;3.00;;;20.10;99.90;;;;;;5120815;27;20456;-90
2022/06/20 09:10:03;;;;;;;10.13;3.10;;;20.20;99.90;;;;;;5118788;27;20505;-90
2022/06/20 09:12:46;;;;;;;3.00;1.97;;;20.30;99.90;;;;;;5117974;27;20450;-91
2022/06/20 09:15:34;;;;;;;2.33;1.70;;;20.30;99.90;;;;;;5115097;27;20491;-90
2022/06/20 09:18:08;;;;;;;5.40;2.97;;;20.40;99.90;;;;;;5116821;27;20453;-90
2022/06/20 09:20:38;;;;;;;2.70;2.50;;;20.50;99.90;;;;;;5109824;27;21013;-90
2022/06/20 09:23:16;;;;;;;2.70;2.50;;;20.70;99.90;;;;;;5111719;28;20590;-90
2022/06/20 09:25:55;;;;;;;3.07;1.70;;;20.90;99.90;;;;;;5111179;28;20461;-91
2022/06/20 09:28:47;;;;;;;2.97;2.67;;;20.90;99.90;;;;;;5107141;27;20463;-89
2022/06/20 09:31:37;;;;;;;3.03;2.73;;;20.90;99.90;;;;;;5108000;27;20460;-90
2022/06/20 09:34:29;;;;;;;3.60;2.57;;;20.80;99.90;;;;;;5106164;27;20539;-90
2022/06/20 09:37:33;;;;;;;2.80;2.20;;;20.80;99.90;;;;;;5109995;27;20469;-90
2022/06/20 09:40:12;;;;;;;2.73;2.53;;;20.80;99.90;;;;;;5066730;27;20520;-90
2022/06/20 09:42:46;;;;;;;1.87;1.70;;;20.80;99.90;;;;;;5109529;27;20460;-91
2022/06/20 09:45:23;;;;;;;12.90;3.73;;;20.80;99.90;;;;;;5123967;27;20819;-90
2022/06/20 09:48:01;;;;;;;4.03;2.73;;;20.80;99.90;;;;;;5119996;27;20546;-90
2022/06/20 09:50:50;;;;;;;4.53;2.23;;;20.70;99.90;;;;;;5106144;27;20469;-90
2022/06/20 09:53:31;;;;;;;2.80;2.53;;;20.60;99.90;;;;;;5110082;27;20463;-90
2022/06/20 09:56:06;;;;;;;2.90;2.53;;;20.60;99.90;;;;;;5108855;28;20487;-91
2022/06/20 09:58:45;;;;;;;3.97;1.57;;;20.60;99.90;;;;;;5113979;27;20932;-89
2022/06/20 10:01:22;;;;;;;6.73;2.37;;;20.60;99.90;;;;;;5105024;27;20464;-91
2022/06/20 10:04:01;;;;;;;5.80;2.60;;;20.70;99.90;;;;;;5114038;28;20476;-91
2022/06/20 10:06:41;;;;;;;2.23;2.13;;;20.50;99.90;;;;;;5100169;28;20953;-90
2022/06/20 10:09:14;;;;;;;6.13;2.87;;;20.50;99.90;;;;;;5094913;28;20456;-91
2022/06/20 10:11:48;;;;;;;2.20;1.77;;;20.50;99.90;;;;;;5097813;28;20515;-91
2022/06/20 10:14:26;;;;;;;2.83;2.53;;;20.50;99.90;;;;;;5103246;27;20490;-91
2022/06/20 10:17:01;;;;;;;3.67;2.00;;;20.80;99.90;;;;;;5102617;28;20491;-89
2022/06/20 10:19:35;;;;;;;3.20;2.37;;;20.90;99.90;;;;;;5098284;27;20469;-91
2022/06/20 10:22:12;;;;;;;2.20;1.90;;;21.40;99.90;;;;;;5096540;28;20453;-89
2022/06/20 10:25:03;;;;;;;3.93;2.20;;;21.80;99.90;;;;;;5101309;28;20457;-90
2022/06/20 10:27:44;;;;;;;2.80;1.93;;;22.20;99.90;;;;;;5100948;27;20508;-90
2022/06/20 10:30:15;;;;;;;2.20;1.37;;;22.60;99.90;;;;;;5099403;28;20457;-91
2022/06/20 10:32:55;;;;;;;2.07;1.87;;;23.10;99.90;;;;;;5093330;28;20463;-91
2022/06/20 10:35:42;;;;;;;2.90;2.20;;;23.60;99.90;;;;;;5091178;28;20521;-90
2022/06/20 10:38:17;;;;;;;2.93;2.40;;;24.10;99.90;;;;;;5096361;28;20528;-88
2022/06/20 10:40:50;;;;;;;2.33;1.33;;;24.00;99.90;;;;;;5095366;28;20506;-90
2022/06/20 10:43:30;;;;;;;4.13;1.67;;;24.20;99.90;;;;;;5092004;27;20542;-91
2022/06/20 10:46:01;;;;;;;1.83;1.70;;;24.20;99.90;;;;;;5092337;28;20946;-91
2022/06/20 10:49:11;;;;;;;2.43;2.17;;;24.90;99.90;;;;;;5095265;27;20463;-91
2022/06/20 10:51:49;;;;;;;4.60;2.20;;;25.30;99.90;;;;;;5103462;27;20449;-90
2022/06/20 10:54:30;;;;;;;2.43;2.23;;;25.80;99.90;;;;;;5097831;28;20477;-90
2022/06/20 10:57:07;;;;;;;2.30;2.10;;;26.40;99.90;;;;;;5104349;27;20462;-90
2022/06/20 10:59:58;;;;;;;1.80;1.70;;;26.40;97.50;;;;;;5100693;28;20511;-90
2022/06/20 11:02:41;;;;;;;3.37;1.97;;;26.30;98.40;;;;;;5102023;28;20450;-89
2022/06/20 11:05:18;;;;;;;5.30;2.20;;;25.90;97.80;;;;;;5102914;28;20453;-89
2022/06/20 11:07:57;;;;;;;4.07;2.60;;;26.20;99.30;;;;;;5097491;27;20905;-89
2022/06/20 11:10:36;;;;;;;3.83;2.10;;;26.60;96.50;;;;;;5103045;27;20458;-90
2022/06/20 11:13:14;;;;;;;3.73;2.33;;;26.80;92.10;;;;;;5101048;28;20580;-89
2022/06/20 11:15:49;;;;;;;2.10;1.90;;;27.30;93.20;;;;;;5101408;28;20481;-90
2022/06/20 11:18:37;;;;;;;1.83;1.73;;;27.50;91.40;;;;;;5096088;28;20454;-90
2022/06/20 11:21:17;;;;;;;4.53;1.70;;;27.70;91.30;;;;;;5104726;28;20462;-90
2022/06/20 11:23:55;;;;;;;3.40;1.97;;;27.90;90.10;;;;;;5102068;28;20450;-90
2022/06/20 11:26:31;;;;;;;2.40;2.13;;;28.00;85.10;;;;;;5107034;27;20450;-90
2022/06/20 11:29:17;;;;;;;10.17;2.90;;;28.00;83.70;;;;;;5102442;28;20503;-89
2022/06/20 11:31:57;;;;;;;2.50;1.50;;;27.60;81.40;;;;;;5103206;27;20848;-90
2022/06/20 11:34:38;;;;;;;2.90;2.70;;;27.20;82.10;;;;;;5102218;28;20441;-90
2022/06/20 11:37:23;;;;;;;4.43;1.93;;;26.70;83.70;;;;;;5097447;28;20466;-91
2022/06/20 11:40:08;;;;;;;1.63;1.50;;;27.50;84.40;;;;;;5122106;27;20471;-91
2022/06/20 11:43:02;;;;;;;5.37;1.73;;;28.10;84.90;;;;;;5120553;28;20462;-91
2022/06/20 11:45:45;;;;;;;2.90;1.60;;;28.00;81.10;;;;;;5129227;28;20473;-91
2022/06/20 11:48:36;;;;;;;2.60;1.63;;;28.30;83.20;;;;;;5107597;28;21281;-90
2022/06/20 11:51:10;;;;;;;3.23;2.10;;;28.40;81.50;;;;;;5099705;28;20458;-90
2022/06/20 11:54:03;;;;;;;2.33;1.93;;;28.10;78.70;;;;;;5106080;28;20453;-90
2022/06/20 11:56:35;;;;;;;7.13;2.40;;;28.10;81.50;;;;;;5102150;28;20560;-90
2022/06/20 11:59:13;;;;;;;2.47;1.53;;;28.20;81.00;;;;;;5105907;28;20504;-90
2022/06/20 12:01:50;;;;;;;1.93;1.27;;;28.10;80.90;;;;;;5105964;28;20465;-90
2022/06/20 12:04:24;;;;;;;4.43;2.13;;;28.40;82.50;;;;;;5101743;28;20462;-90
2022/06/20 12:06:56;;;;;;;1.93;1.73;;;28.50;81.00;;;;;;5097322;28;20501;-90
2022/06/20 12:09:33;;;;;;;6.43;2.57;;;28.60;80.70;;;;;;5101449;28;20866;-90
2022/06/20 12:12:15;;;;;;;5.43;3.30;;;28.70;78.60;;;;;;5099387;28;20538;-91
2022/06/20 12:14:52;;;;;;;5.80;3.00;;;29.20;83.30;;;;;;5099670;28;20503;-91
2022/06/20 12:17:32;;;;;;;4.63;2.83;;;30.00;77.30;;;;;;5103281;28;20473;-91
2022/06/20 12:23:24;;;;;;;3.10;2.13;;;30.40;67.20;;;;;;5102524;28;20552;-91
2022/06/20 12:25:58;;;;;;;3.23;2.57;;;30.50;72.40;;;;;;5105550;28;20461;-91
2022/06/20 12:28:28;;;;;;;3.60;2.77;;;30.10;67.10;;;;;;5096823;28;20473;-91
2022/06/20 12:31:03;;;;;;;6.17;2.23;;;30.10;68.00;;;;;;5096346;28;20463;-92
2022/06/20 12:33:33;;;;;;;2.80;2.60;;;30.10;64.70;;;;;;5094668;28;20987;-93
2022/06/20 12:36:06;;;;;;;2.00;1.90;;;30.20;67.00;;;;;;5100770;28;20477;-91
2022/06/20 12:38:39;;;;;;;4.60;2.87;;;30.40;63.70;;;;;;5103893;28;20587;-91
2022/06/20 12:41:13;;;;;;;4.87;2.27;;;30.20;64.30;;;;;;5096539;28;20446;-91
2022/06/20 12:43:50;;;;;;;6.57;2.70;;;29.80;65.70;;;;;;5097814;28;20461;-89
2022/06/20 12:46:30;;;;;;;3.00;2.27;;;29.30;66.30;;;;;;5110531;27;20476;-89
2022/06/20 12:49:15;;;;;;;5.17;2.17;;;29.30;66.20;;;;;;5096614;28;20543;-92
2022/06/20 12:51:50;;;;;;;3.83;2.17;;;29.20;65.10;;;;;;5101038;28;20472;-91
2022/06/20 12:54:31;;;;;;;4.70;2.90;;;29.20;67.60;;;;;;5104429;28;20535;-91
2022/06/20 12:57:11;;;;;;;4.10;2.80;;;30.00;69.30;;;;;;5103909;28;20526;-91
2022/06/20 13:00:00;;;;;;;2.60;2.40;;;30.50;64.20;;;;;;5099053;28;20515;-91
2022/06/20 13:02:41;;;;;;;2.20;1.90;;;30.70;64.00;;;;;;5090080;28;20983;-90
2022/06/20 13:05:35;;;;;;;4.30;1.77;;;30.50;63.50;;;;;;5096690;28;20478;-91
2022/06/20 13:08:23;;;;;;;4.93;2.00;;;30.40;61.50;;;;;;5088517;28;20539;-91
2022/06/20 13:11:01;;;;;;;2.93;1.97;;;30.00;63.10;;;;;;5101475;28;20800;-91
2022/06/20 13:13:53;;;;;;;2.37;2.17;;;29.90;61.60;;;;;;5095732;28;20461;-91
2022/06/20 13:16:29;;;;;;;3.50;2.90;;;30.10;58.80;;;;;;5090227;28;20984;-91
2022/06/20 13:19:13;;;;;;;5.97;2.70;;;29.90;60.00;;;;;;5090934;28;20518;-91
2022/06/20 13:21:44;;;;;;;2.43;2.23;;;30.10;63.30;;;;;;5099994;28;20544;-91
2022/06/20 13:24:34;;;;;;;3.23;2.93;;;30.20;64.90;;;;;;5103597;28;20507;-90
2022/06/20 13:27:24;;;;;;;3.57;2.10;;;30.20;64.80;;;;;;5096196;28;20514;-91
2022/06/20 13:29:58;;;;;;;8.10;2.50;;;30.40;68.80;;;;;;5092829;28;20463;-91
2022/06/20 13:32:31;;;;;;;5.03;2.93;;;30.30;63.00;;;;;;5093598;28;20859;-91
2022/06/20 13:35:06;;;;;;;6.93;2.90;;;30.20;64.10;;;;;;5098783;28;20458;-91
2022/06/20 13:37:46;;;;;;;8.93;2.80;;;30.30;65.60;;;;;;5101299;28;20497;-91
2022/06/20 13:40:26;;;;;;;3.37;2.70;;;30.30;63.50;;;;;;5087719;28;20458;-91
2022/06/20 13:43:14;;;;;;;3.37;3.07;;;30.20;62.50;;;;;;5097789;28;20839;-90